createdAt,value
2024-02-24T00:01:55.040Z,100.00
2024-02-24T00:04:22.676Z,100.00
2024-02-24T00:06:50.257Z,100.00
2024-02-24T00:09:17.734Z,100.00
2024-02-24T00:11:45.569Z,100.00
2024-02-24T00:14:13.050Z,100.00
2024-02-24T00:16:40.622Z,100.00
2024-02-24T00:19:08.079Z,100.00
2024-02-24T00:21:35.611Z,100.00
2024-02-24T00:24:03.037Z,100.00
2024-02-24T00:26:30.284Z,100.00
2024-02-24T00:28:57.653Z,100.00
2024-02-24T00:31:25.005Z,100.00
2024-02-24T00:33:52.383Z,100.00
2024-02-24T00:36:20.103Z,100.00
2024-02-24T00:38:47.412Z,100.00
2024-02-24T00:41:14.894Z,100.00
2024-02-24T00:43:42.722Z,100.00
2024-02-24T00:46:10.797Z,100.00
2024-02-24T00:48:38.127Z,100.00
2024-02-24T00:51:05.717Z,100.00
2024-02-24T00:53:33.000Z,100.00
2024-02-24T00:56:00.499Z,100.00
2024-02-24T00:58:27.752Z,100.00
2024-02-24T01:00:55.144Z,100.00
2024-02-24T01:03:23.233Z,100.00
2024-02-24T01:05:51.002Z,100.00
2024-02-24T01:08:18.371Z,100.00
2024-02-24T01:10:46.113Z,100.00
2024-02-24T01:13:14.076Z,100.00
2024-02-24T01:15:41.802Z,100.00
2024-02-24T01:18:09.660Z,100.00
2024-02-24T01:20:37.672Z,100.00
2024-02-24T01:23:05.174Z,100.00
2024-02-24T01:25:32.680Z,100.00
2024-02-24T01:27:59.901Z,100.00
2024-02-24T01:30:27.929Z,100.00
2024-02-24T01:32:55.521Z,100.00
2024-02-24T01:35:23.338Z,100.00
2024-02-24T01:37:50.653Z,100.00
2024-02-24T01:40:18.260Z,100.00
2024-02-24T01:42:46.898Z,100.00
2024-02-24T01:45:15.727Z,100.00
2024-02-24T01:47:43.764Z,100.00
2024-02-24T01:50:13.324Z,100.00
2024-02-24T01:52:41.095Z,100.00
2024-02-24T01:55:10.400Z,100.00
2024-02-24T01:57:43.978Z,100.00
2024-02-24T02:00:13.949Z,100.00
2024-02-24T02:02:44.636Z,100.00
2024-02-24T02:05:14.923Z,100.00
2024-02-24T02:07:42.399Z,100.00
2024-02-24T02:10:10.978Z,100.00
2024-02-24T02:12:38.814Z,100.00
2024-02-24T02:15:07.607Z,100.00
2024-02-24T02:17:35.182Z,100.00
2024-02-24T02:20:06.186Z,100.00
2024-02-24T02:22:34.173Z,100.00
2024-02-24T02:25:01.541Z,100.00
2024-02-24T02:27:28.682Z,100.00
2024-02-24T02:29:56.139Z,100.00
2024-02-24T02:32:23.797Z,100.00
2024-02-24T02:34:51.473Z,100.00
2024-02-24T02:37:18.835Z,100.00
2024-02-24T02:39:45.970Z,100.00
2024-02-24T02:42:14.538Z,100.00
2024-02-24T02:44:42.283Z,100.00
2024-02-24T02:47:17.305Z,100.00
2024-02-24T02:49:47.391Z,100.00
2024-02-24T02:52:14.829Z,100.00
2024-02-24T02:54:42.084Z,100.00
2024-02-24T02:57:09.388Z,100.00
2024-02-24T02:59:39.504Z,100.00
2024-02-24T03:02:07.388Z,100.00
2024-02-24T03:04:34.690Z,100.00
2024-02-24T03:07:01.974Z,100.00
2024-02-24T03:09:29.249Z,100.00
2024-02-24T03:11:57.143Z,100.00
2024-02-24T03:14:25.048Z,100.00
2024-02-24T03:16:55.013Z,100.00
2024-02-24T03:19:22.447Z,100.00
2024-02-24T03:21:50.261Z,100.00
2024-02-24T03:24:17.714Z,100.00
2024-02-24T03:26:45.075Z,100.00
2024-02-24T03:29:12.348Z,100.00
2024-02-24T03:31:39.609Z,100.00
2024-02-24T03:34:08.742Z,100.00
2024-02-24T03:36:36.238Z,100.00
2024-02-24T03:39:03.524Z,100.00
2024-02-24T03:41:34.123Z,100.00
2024-02-24T03:44:02.190Z,100.00
2024-02-24T03:46:29.547Z,100.00
2024-02-24T03:48:56.779Z,100.00
2024-02-24T03:51:24.170Z,100.00
2024-02-24T03:53:51.570Z,100.00
2024-02-24T03:56:18.778Z,100.00
2024-02-24T03:58:46.624Z,100.00
2024-02-24T04:01:14.092Z,100.00
2024-02-24T04:03:41.489Z,100.00
2024-02-24T04:06:10.039Z,100.00
2024-02-24T04:08:37.833Z,100.00
2024-02-24T04:11:05.793Z,100.00
2024-02-24T04:13:33.325Z,100.00
2024-02-24T04:16:01.102Z,100.00
2024-02-24T04:18:28.515Z,100.00
2024-02-24T04:20:55.928Z,100.00
2024-02-24T04:23:23.776Z,100.00
2024-02-24T04:25:51.054Z,100.00
2024-02-24T04:28:20.398Z,100.00
2024-02-24T04:30:49.032Z,100.00
2024-02-24T04:33:16.710Z,100.00
2024-02-24T04:35:44.191Z,100.00
2024-02-24T04:38:11.606Z,100.00
2024-02-24T04:40:39.350Z,100.00
2024-02-24T04:43:06.962Z,100.00
2024-02-24T04:45:34.274Z,100.00
2024-02-24T04:48:01.811Z,100.00
2024-02-24T04:50:29.576Z,100.00
2024-02-24T04:52:56.970Z,100.00
2024-02-24T04:55:24.296Z,100.00
2024-02-24T04:57:51.554Z,100.00
2024-02-24T05:00:20.024Z,100.00
2024-02-24T05:02:47.557Z,100.00
2024-02-24T05:05:15.441Z,100.00
2024-02-24T05:07:43.225Z,100.00
2024-02-24T05:10:11.542Z,100.00
2024-02-24T05:12:39.224Z,100.00
2024-02-24T05:15:07.288Z,100.00
2024-02-24T05:17:34.808Z,100.00
2024-02-24T05:20:02.111Z,100.00
2024-02-24T05:22:29.396Z,100.00
2024-02-24T05:24:56.661Z,100.00
2024-02-24T05:27:23.801Z,100.00
2024-02-24T05:29:51.194Z,100.00
2024-02-24T05:32:18.972Z,100.00
2024-02-24T05:34:46.632Z,100.00
2024-02-24T05:37:13.951Z,100.00
2024-02-24T05:39:41.297Z,100.00
2024-02-24T05:42:09.311Z,100.00
2024-02-24T05:44:36.633Z,100.00
2024-02-24T05:47:05.223Z,100.00
2024-02-24T05:49:32.702Z,100.00
2024-02-24T05:52:00.020Z,100.00
2024-02-24T05:54:27.374Z,100.00
2024-02-24T05:56:54.544Z,100.00
2024-02-24T05:59:22.029Z,100.00
2024-02-24T06:01:49.234Z,100.00
2024-02-24T06:04:17.345Z,100.00
2024-02-24T06:06:47.720Z,100.00
2024-02-24T06:09:15.210Z,100.00
2024-02-24T06:11:42.554Z,100.00
2024-02-24T06:14:09.938Z,100.00
2024-02-24T06:16:37.257Z,100.00
2024-02-24T06:19:04.544Z,100.00
2024-02-24T06:21:34.168Z,100.00
2024-02-24T06:24:01.481Z,100.00
2024-02-24T06:26:28.656Z,100.00
2024-02-24T06:28:57.409Z,100.00
2024-02-24T06:31:24.573Z,100.00
2024-02-24T06:33:52.040Z,100.00
2024-02-24T06:36:19.303Z,100.00
2024-02-24T06:38:46.532Z,100.00
2024-02-24T06:41:14.187Z,100.00
2024-02-24T06:43:41.435Z,100.00
2024-02-24T06:46:08.722Z,100.00
2024-02-24T06:48:36.135Z,100.00
2024-02-24T06:51:03.501Z,100.00
2024-02-24T06:53:31.186Z,100.00
2024-02-24T06:55:58.416Z,100.00
2024-02-24T06:58:25.569Z,100.00
2024-02-24T07:00:53.064Z,100.00
2024-02-24T07:03:21.088Z,100.00
2024-02-24T07:05:48.660Z,100.00
2024-02-24T07:08:16.617Z,100.00
2024-02-24T07:10:44.063Z,100.00
2024-02-24T07:13:12.026Z,100.00
2024-02-24T07:15:39.994Z,100.00
2024-02-24T07:18:08.033Z,100.00
2024-02-24T07:20:35.493Z,100.00
2024-02-24T07:23:02.683Z,100.00
2024-02-24T07:25:30.160Z,100.00
2024-02-24T07:27:58.144Z,100.00
2024-02-24T07:30:25.584Z,100.00
2024-02-24T07:32:53.059Z,100.00
2024-02-24T07:35:20.368Z,100.00
2024-02-24T07:37:47.855Z,100.00
2024-02-24T07:40:16.372Z,100.00
2024-02-24T07:42:43.686Z,100.00
2024-02-24T07:45:12.287Z,100.00
2024-02-24T07:47:39.537Z,100.00
2024-02-24T07:50:08.791Z,100.00
2024-02-24T07:52:36.418Z,100.00
2024-02-24T07:55:04.314Z,100.00
2024-02-24T07:57:31.567Z,100.00
2024-02-24T07:59:59.283Z,100.00
2024-02-24T08:02:26.833Z,99.95
2024-02-24T08:04:54.310Z,100.00
2024-02-24T08:07:21.792Z,99.95
2024-02-24T08:09:49.208Z,99.83
2024-02-24T08:12:16.609Z,99.32
2024-02-24T08:14:44.196Z,98.68
2024-02-24T08:17:13.383Z,98.69
2024-02-24T08:19:40.819Z,98.05
2024-02-24T08:22:08.167Z,98.22
2024-02-24T08:24:35.503Z,98.44
2024-02-24T08:27:02.813Z,98.19
2024-02-24T08:29:33.123Z,98.21
2024-02-24T08:32:00.788Z,98.16
2024-02-24T08:34:28.252Z,98.05
2024-02-24T08:36:55.646Z,97.55
2024-02-24T08:39:23.001Z,97.23
2024-02-24T08:41:50.335Z,97.40
2024-02-24T08:44:19.098Z,97.54
2024-02-24T08:46:46.301Z,97.39
2024-02-24T08:49:13.655Z,97.27
2024-02-24T08:51:41.573Z,96.77
2024-02-24T08:54:09.114Z,96.89
2024-02-24T08:56:36.469Z,96.64
2024-02-24T08:59:03.910Z,96.76
2024-02-24T09:01:31.151Z,96.44
2024-02-24T09:04:00.933Z,95.78
2024-02-24T09:06:28.299Z,95.85
2024-02-24T09:08:55.605Z,96.06
2024-02-24T09:11:23.267Z,94.81
2024-02-24T09:13:51.197Z,95.35
2024-02-24T09:16:20.281Z,94.83
2024-02-24T09:18:47.732Z,94.68
2024-02-24T09:21:15.126Z,94.42
2024-02-24T09:23:42.537Z,94.06
2024-02-24T09:26:10.062Z,94.05
2024-02-24T09:28:37.573Z,94.02
2024-02-24T09:31:04.932Z,93.23
2024-02-24T09:33:32.331Z,93.76
2024-02-24T09:35:59.755Z,92.77
2024-02-24T09:38:27.438Z,93.30
2024-02-24T09:40:54.967Z,93.02
2024-02-24T09:43:22.438Z,92.32
2024-02-24T09:45:50.704Z,92.31
2024-02-24T09:48:19.472Z,91.93
2024-02-24T09:50:47.064Z,91.71
2024-02-24T09:53:14.454Z,91.83
2024-02-24T09:55:41.692Z,91.73
2024-02-24T09:58:15.980Z,92.03
2024-02-24T10:00:45.225Z,92.00
2024-02-24T10:03:13.291Z,92.13
2024-02-24T10:05:41.350Z,91.29
2024-02-24T10:08:11.897Z,91.96
2024-02-24T10:10:40.468Z,90.25
2024-02-24T10:13:07.883Z,88.86
2024-02-24T10:15:36.989Z,87.53
2024-02-24T10:18:05.427Z,87.00
2024-02-24T10:20:33.081Z,84.23
2024-02-24T10:23:00.682Z,82.15
2024-02-24T10:25:28.109Z,81.33
2024-02-24T10:27:56.536Z,81.99
2024-02-24T10:30:25.485Z,81.10
2024-02-24T10:32:57.623Z,80.60
2024-02-24T10:35:25.470Z,80.59
2024-02-24T10:38:10.999Z,81.95
2024-02-24T10:40:44.638Z,81.64
2024-02-24T10:43:13.939Z,81.77
2024-02-24T10:45:41.410Z,81.86
2024-02-24T10:48:10.158Z,78.92
2024-02-24T10:50:37.901Z,77.65
2024-02-24T10:53:06.586Z,77.56
2024-02-24T10:55:37.409Z,77.42
2024-02-24T10:58:04.646Z,76.97
2024-02-24T11:00:37.262Z,76.87
2024-02-24T11:03:06.202Z,76.29
2024-02-24T11:05:35.486Z,74.88
2024-02-24T11:08:04.964Z,73.03
2024-02-24T11:10:36.765Z,73.64
2024-02-24T11:13:04.878Z,74.77
2024-02-24T11:15:32.387Z,75.27
2024-02-24T11:18:00.502Z,75.13
2024-02-24T11:20:59.765Z,74.72
2024-02-24T11:23:33.251Z,73.37
2024-02-24T11:26:33.138Z,74.68
2024-02-24T11:29:08.910Z,75.85
2024-02-24T11:31:38.021Z,76.86
2024-02-24T11:34:09.724Z,76.76
2024-02-24T11:36:39.991Z,77.42
2024-02-24T11:39:09.862Z,77.90
2024-02-24T11:41:38.133Z,77.30
2024-02-24T11:44:05.897Z,77.25
2024-02-24T11:46:34.781Z,76.26
2024-02-24T11:49:02.630Z,76.00
2024-02-24T11:51:30.025Z,75.63
2024-02-24T11:53:57.682Z,75.67
2024-02-24T11:56:27.157Z,75.23
2024-02-24T11:58:56.661Z,75.57
2024-02-24T12:01:24.552Z,76.12
2024-02-24T12:03:56.840Z,75.64
2024-02-24T12:06:25.950Z,74.15
2024-02-24T12:08:54.454Z,73.97
2024-02-24T12:11:22.787Z,74.09
2024-02-24T12:13:50.305Z,74.65
2024-02-24T12:16:18.066Z,74.13
2024-02-24T12:18:46.555Z,73.86
2024-02-24T12:21:15.279Z,74.12
2024-02-24T12:23:43.465Z,74.74
2024-02-24T12:26:20.108Z,74.20
2024-02-24T12:28:48.923Z,73.27
2024-02-24T12:31:17.387Z,72.72
2024-02-24T12:33:46.850Z,72.63
2024-02-24T12:36:17.139Z,72.69
2024-02-24T12:38:45.440Z,72.39
2024-02-24T12:41:14.621Z,72.86
2024-02-24T12:43:43.136Z,72.75
2024-02-24T12:46:11.131Z,72.55
2024-02-24T12:48:42.091Z,73.04
2024-02-24T12:51:11.097Z,73.08
2024-02-24T12:53:38.588Z,73.28
2024-02-24T12:56:06.459Z,73.97
2024-02-24T12:58:35.363Z,74.39
2024-02-24T13:01:02.623Z,74.57
2024-02-24T13:03:29.795Z,74.56
2024-02-24T13:05:57.220Z,74.46
2024-02-24T13:08:24.899Z,74.43
2024-02-24T13:10:52.373Z,74.74
2024-02-24T13:13:19.564Z,75.02
2024-02-24T13:15:47.721Z,75.54
2024-02-24T13:18:15.064Z,75.77
2024-02-24T13:20:42.420Z,76.00
2024-02-24T13:23:09.565Z,76.04
2024-02-24T13:25:37.304Z,76.04
2024-02-24T13:28:05.096Z,76.10
2024-02-24T13:30:32.409Z,76.56
2024-02-24T13:33:00.068Z,76.88
2024-02-24T13:35:29.552Z,76.92
2024-02-24T13:37:56.766Z,76.95
2024-02-24T13:40:25.616Z,77.27
2024-02-24T13:42:52.930Z,76.82
2024-02-24T13:45:20.644Z,76.50
2024-02-24T13:47:50.996Z,76.42
2024-02-24T13:50:24.046Z,76.27
2024-02-24T13:52:51.337Z,76.51
2024-02-24T13:55:19.020Z,76.71
2024-02-24T13:57:46.731Z,76.68
2024-02-24T14:00:16.112Z,76.95
2024-02-24T14:02:44.296Z,77.09
2024-02-24T14:05:13.832Z,77.09
2024-02-24T14:07:41.309Z,77.23
2024-02-24T14:10:10.103Z,77.39
2024-02-24T14:12:37.485Z,77.47
2024-02-24T14:15:05.165Z,77.31
2024-02-24T14:17:32.607Z,77.36
2024-02-24T14:20:05.549Z,77.42
2024-02-24T14:22:39.134Z,77.41
2024-02-24T14:25:07.967Z,77.39
2024-02-24T14:27:35.711Z,76.90
2024-02-24T14:30:03.499Z,76.64
2024-02-24T14:32:31.017Z,76.60
2024-02-24T14:34:58.861Z,76.56
2024-02-24T14:37:26.158Z,76.67
2024-02-24T14:39:53.308Z,76.51
2024-02-24T14:42:20.444Z,76.50
2024-02-24T14:44:47.812Z,76.16
2024-02-24T14:47:15.087Z,76.31
2024-02-24T14:49:42.781Z,76.03
2024-02-24T14:52:11.281Z,76.23
2024-02-24T14:54:42.211Z,76.20
2024-02-24T14:57:13.703Z,76.21
2024-02-24T14:59:42.275Z,76.44
2024-02-24T15:02:10.474Z,76.34
2024-02-24T15:04:38.430Z,76.38
2024-02-24T15:07:06.595Z,76.46
2024-02-24T15:09:34.467Z,76.53
2024-02-24T15:12:02.022Z,76.42
2024-02-24T15:14:29.687Z,76.51
2024-02-24T15:16:58.242Z,76.81
2024-02-24T15:19:25.447Z,76.78
2024-02-24T15:21:53.057Z,76.86
2024-02-24T15:24:21.176Z,77.08
2024-02-24T15:26:48.814Z,76.90
2024-02-24T15:29:18.392Z,77.05
2024-02-24T15:31:46.497Z,77.19
2024-02-24T15:34:14.688Z,77.35
2024-02-24T15:36:44.692Z,77.30
2024-02-24T15:39:12.427Z,77.24
2024-02-24T15:41:40.057Z,76.99
2024-02-24T15:44:08.091Z,77.16
2024-02-24T15:46:36.106Z,77.09
2024-02-24T15:49:03.675Z,77.23
2024-02-24T15:51:31.302Z,77.22
2024-02-24T15:53:58.821Z,77.28
2024-02-24T15:56:26.505Z,77.36
2024-02-24T15:58:53.721Z,77.51
2024-02-24T16:01:23.621Z,77.59
2024-02-24T16:03:51.022Z,77.60
2024-02-24T16:06:20.275Z,77.70
2024-02-24T16:08:47.810Z,77.81
2024-02-24T16:11:15.712Z,77.99
2024-02-24T16:13:43.112Z,78.18
2024-02-24T16:16:14.320Z,78.04
2024-02-24T16:18:42.977Z,78.23
2024-02-24T16:21:10.837Z,78.13
2024-02-24T16:23:38.779Z,78.47
2024-02-24T16:26:07.046Z,78.73
2024-02-24T16:28:34.922Z,78.81
2024-02-24T16:31:02.667Z,78.88
2024-02-24T16:33:30.500Z,79.17
2024-02-24T16:35:58.018Z,79.34
2024-02-24T16:38:25.768Z,79.63
2024-02-24T16:40:53.631Z,79.88
2024-02-24T16:43:21.167Z,79.84
2024-02-24T16:45:48.869Z,79.75
2024-02-24T16:48:19.635Z,79.88
2024-02-24T16:50:47.376Z,79.93
2024-02-24T16:53:14.718Z,79.95
2024-02-24T16:55:41.986Z,80.08
2024-02-24T16:58:09.613Z,80.15
2024-02-24T17:00:37.002Z,80.24
2024-02-24T17:03:05.011Z,80.15
2024-02-24T17:05:32.362Z,80.15
2024-02-24T17:07:59.787Z,80.14
2024-02-24T17:10:27.400Z,79.98
2024-02-24T17:12:55.040Z,80.08
2024-02-24T17:15:22.939Z,80.10
2024-02-24T17:17:50.611Z,80.13
2024-02-24T17:20:20.316Z,80.16
2024-02-24T17:22:47.862Z,80.05
2024-02-24T17:25:16.869Z,80.21
2024-02-24T17:27:46.718Z,80.31
2024-02-24T17:30:18.761Z,80.34
2024-02-24T17:32:46.219Z,80.52
2024-02-24T17:35:14.661Z,80.57
2024-02-24T17:37:42.986Z,80.64
2024-02-24T17:40:12.898Z,80.87
2024-02-24T17:42:40.324Z,80.89
2024-02-24T17:45:09.700Z,81.01
2024-02-24T17:47:37.017Z,81.21
2024-02-24T17:50:05.156Z,81.36
2024-02-24T17:52:32.818Z,81.34
2024-02-24T17:55:00.225Z,81.42
2024-02-24T17:57:27.942Z,81.62
2024-02-24T17:59:56.054Z,81.65
2024-02-24T18:02:23.958Z,81.71
2024-02-24T18:04:51.570Z,81.72
2024-02-24T18:07:19.242Z,81.62
2024-02-24T18:09:46.498Z,81.62
2024-02-24T18:12:13.999Z,81.81
2024-02-24T18:14:42.807Z,81.68
2024-02-24T18:17:10.872Z,81.89
2024-02-24T18:19:38.590Z,81.85
2024-02-24T18:22:06.180Z,81.90
2024-02-24T18:24:33.558Z,81.85
2024-02-24T18:27:01.047Z,81.84
2024-02-24T18:29:28.805Z,82.06
2024-02-24T18:31:56.240Z,82.07
2024-02-24T18:34:23.754Z,82.21
2024-02-24T18:36:51.887Z,82.30
2024-02-24T18:39:19.536Z,82.22
2024-02-24T18:41:46.932Z,82.36
2024-02-24T18:44:16.145Z,82.21
2024-02-24T18:46:43.848Z,82.47
2024-02-24T18:49:11.688Z,82.53
2024-02-24T18:51:39.140Z,82.45
2024-02-24T18:54:07.814Z,82.59
2024-02-24T18:56:36.613Z,82.79
2024-02-24T18:59:06.253Z,82.82
2024-02-24T19:01:33.631Z,82.85
2024-02-24T19:04:01.041Z,82.86
2024-02-24T19:06:28.546Z,82.91
2024-02-24T19:08:56.163Z,83.05
2024-02-24T19:11:23.622Z,83.04
2024-02-24T19:13:51.132Z,83.07
2024-02-24T19:16:18.480Z,83.09
2024-02-24T19:18:46.192Z,83.14
2024-02-24T19:21:14.118Z,83.13
2024-02-24T19:23:41.596Z,83.20
2024-02-24T19:26:09.821Z,83.30
2024-02-24T19:28:37.171Z,83.44
2024-02-24T19:31:04.551Z,83.70
2024-02-24T19:33:32.059Z,83.85
2024-02-24T19:35:59.792Z,84.10
2024-02-24T19:38:27.664Z,84.17
2024-02-24T19:40:55.044Z,84.21
2024-02-24T19:43:22.333Z,84.21
2024-02-24T19:45:49.628Z,84.50
2024-02-24T19:48:17.071Z,84.50
2024-02-24T19:50:48.980Z,84.82
2024-02-24T19:53:16.515Z,84.81
2024-02-24T19:55:43.760Z,85.09
2024-02-24T19:58:21.030Z,84.99
2024-02-24T20:00:56.821Z,85.44
2024-02-24T20:03:24.372Z,85.29
2024-02-24T20:05:51.885Z,85.45
2024-02-24T20:08:19.373Z,85.51
2024-02-24T20:10:47.045Z,85.78
2024-02-24T20:13:14.347Z,85.75
2024-02-24T20:15:41.598Z,85.65
2024-02-24T20:18:09.436Z,85.79
2024-02-24T20:20:36.693Z,85.89
2024-02-24T20:23:03.908Z,85.86
2024-02-24T20:25:31.248Z,86.15
2024-02-24T20:27:58.379Z,86.13
2024-02-24T20:30:25.524Z,86.57
2024-02-24T20:32:54.173Z,86.61
2024-02-24T20:35:22.081Z,86.55
2024-02-24T20:37:49.740Z,86.88
2024-02-24T20:40:17.642Z,87.03
2024-02-24T20:42:45.074Z,86.93
2024-02-24T20:45:13.821Z,86.98
2024-02-24T20:47:41.641Z,87.10
2024-02-24T20:50:10.676Z,87.27
2024-02-24T20:52:38.230Z,87.31
2024-02-24T20:55:06.080Z,87.34
2024-02-24T20:57:33.816Z,87.40
2024-02-24T21:00:03.783Z,87.46
2024-02-24T21:02:31.798Z,87.35
2024-02-24T21:04:59.148Z,87.42
2024-02-24T21:07:26.916Z,87.31
2024-02-24T21:09:54.250Z,87.13
2024-02-24T21:12:22.483Z,87.34
2024-02-24T21:14:49.849Z,87.08
2024-02-24T21:17:17.383Z,87.22
2024-02-24T21:19:44.984Z,86.74
2024-02-24T21:22:12.396Z,86.87
2024-02-24T21:24:39.569Z,86.74
2024-02-24T21:27:07.438Z,86.90
2024-02-24T21:29:35.339Z,86.79
2024-02-24T21:32:02.753Z,86.64
2024-02-24T21:34:31.555Z,86.68
2024-02-24T21:36:59.087Z,86.57
2024-02-24T21:39:26.625Z,86.55
2024-02-24T21:41:53.913Z,86.96
2024-02-24T21:44:21.388Z,86.89
2024-02-24T21:46:48.790Z,86.79
2024-02-24T21:49:19.003Z,87.05
2024-02-24T21:51:46.541Z,87.06
2024-02-24T21:54:15.980Z,87.25
2024-02-24T21:56:45.528Z,87.16
2024-02-24T21:59:12.752Z,87.13
2024-02-24T22:01:40.025Z,87.30
2024-02-24T22:04:08.020Z,87.19
2024-02-24T22:06:36.530Z,87.32
2024-02-24T22:09:04.946Z,87.47
2024-02-24T22:11:35.153Z,87.48
2024-02-24T22:14:02.576Z,87.46
2024-02-24T22:16:30.302Z,87.78
2024-02-24T22:18:58.011Z,87.74
2024-02-24T22:21:27.919Z,87.81
2024-02-24T22:23:55.333Z,87.97
2024-02-24T22:26:25.201Z,88.24
2024-02-24T22:28:53.711Z,88.25
2024-02-24T22:31:21.957Z,88.48
2024-02-24T22:33:49.301Z,88.60
2024-02-24T22:36:16.895Z,88.80
2024-02-24T22:38:44.693Z,89.01
2024-02-24T22:41:12.003Z,89.40
2024-02-24T22:43:39.400Z,89.51
2024-02-24T22:46:08.714Z,89.54
2024-02-24T22:48:36.083Z,89.79
2024-02-24T22:51:03.533Z,89.80
2024-02-24T22:53:31.219Z,89.87
2024-02-24T22:55:58.378Z,90.02
2024-02-24T22:58:25.706Z,90.16
2024-02-24T23:00:53.202Z,90.31
2024-02-24T23:03:23.418Z,90.34
2024-02-24T23:05:51.650Z,90.66
2024-02-24T23:08:18.956Z,90.76
2024-02-24T23:10:46.219Z,90.70
2024-02-24T23:13:13.568Z,90.79
2024-02-24T23:15:40.821Z,90.91
2024-02-24T23:18:09.403Z,90.89
2024-02-24T23:20:36.755Z,91.17
2024-02-24T23:23:04.320Z,91.00
2024-02-24T23:25:33.088Z,91.07
2024-02-24T23:28:00.260Z,91.37
2024-02-24T23:30:27.709Z,91.32
2024-02-24T23:32:55.193Z,91.53
2024-02-24T23:35:22.672Z,91.56
2024-02-24T23:37:49.919Z,91.42
2024-02-24T23:40:17.963Z,91.64
2024-02-24T23:42:46.042Z,91.80
2024-02-24T23:45:14.015Z,91.58
2024-02-24T23:47:42.665Z,91.82
2024-02-24T23:50:11.295Z,91.66
2024-02-24T23:52:38.820Z,91.87
2024-02-24T23:55:08.571Z,91.81
2024-02-24T23:57:35.718Z,91.79
